sensor_id;sensor_type;location;lat;lon;timestamp;P1;durP1;ratioP1;P2;durP2;ratioP2
11228;SDS011;5671;47.936;8.716;2023-03-05T00:02:06;32.63;;;20.07;;
11228;SDS011;5671;47.936;8.716;2023-03-05T00:04:34;20.77;;;14.87;;
11228;SDS011;5671;47.936;8.716;2023-03-05T00:07:01;27.93;;;16.00;;
11228;SDS011;5671;47.936;8.716;2023-03-05T00:09:28;30.73;;;19.40;;
11228;SDS011;5671;47.936;8.716;2023-03-05T00:11:55;39.40;;;24.60;;
11228;SDS011;5671;47.936;8.716;2023-03-05T00:14:22;23.20;;;16.53;;
11228;SDS011;5671;47.936;8.716;2023-03-05T00:16:49;19.70;;;14.70;;
11228;SDS011;5671;47.936;8.716;2023-03-05T00:19:15;26.88;;;17.60;;
11228;SDS011;5671;47.936;8.716;2023-03-05T00:21:44;27.27;;;19.60;;
11228;SDS011;5671;47.936;8.716;2023-03-05T00:24:11;31.30;;;20.30;;
11228;SDS011;5671;47.936;8.716;2023-03-05T00:26:40;23.83;;;16.03;;
11228;SDS011;5671;47.936;8.716;2023-03-05T00:29:08;22.02;;;15.07;;
11228;SDS011;5671;47.936;8.716;2023-03-05T00:31:36;21.87;;;14.70;;
11228;SDS011;5671;47.936;8.716;2023-03-05T00:34:04;22.03;;;14.87;;
11228;SDS011;5671;47.936;8.716;2023-03-05T00:36:33;22.55;;;15.80;;
11228;SDS011;5671;47.936;8.716;2023-03-05T00:39:01;25.33;;;17.00;;
11228;SDS011;5671;47.936;8.716;2023-03-05T00:41:28;21.23;;;15.47;;
11228;SDS011;5671;47.936;8.716;2023-03-05T00:43:55;24.35;;;15.68;;
11228;SDS011;5671;47.936;8.716;2023-03-05T00:46:22;19.10;;;13.50;;
11228;SDS011;5671;47.936;8.716;2023-03-05T00:48:51;24.75;;;14.60;;
11228;SDS011;5671;47.936;8.716;2023-03-05T00:51:18;20.95;;;14.02;;
11228;SDS011;5671;47.936;8.716;2023-03-05T00:53:45;19.00;;;13.83;;
11228;SDS011;5671;47.936;8.716;2023-03-05T00:56:13;20.97;;;14.23;;
11228;SDS011;5671;47.936;8.716;2023-03-05T00:58:40;22.90;;;13.97;;
11228;SDS011;5671;47.936;8.716;2023-03-05T01:01:07;19.57;;;14.20;;
11228;SDS011;5671;47.936;8.716;2023-03-05T01:03:34;21.03;;;13.13;;
11228;SDS011;5671;47.936;8.716;2023-03-05T01:06:03;17.80;;;13.88;;
11228;SDS011;5671;47.936;8.716;2023-03-05T01:08:31;21.73;;;13.97;;
11228;SDS011;5671;47.936;8.716;2023-03-05T01:10:58;19.93;;;14.40;;
11228;SDS011;5671;47.936;8.716;2023-03-05T01:13:26;20.75;;;14.95;;
11228;SDS011;5671;47.936;8.716;2023-03-05T01:15:53;21.30;;;14.20;;
11228;SDS011;5671;47.936;8.716;2023-03-05T01:18:20;24.10;;;15.02;;
11228;SDS011;5671;47.936;8.716;2023-03-05T01:20:47;22.57;;;15.53;;
11228;SDS011;5671;47.936;8.716;2023-03-05T01:23:15;23.10;;;15.20;;
11228;SDS011;5671;47.936;8.716;2023-03-05T01:25:41;21.10;;;14.88;;
11228;SDS011;5671;47.936;8.716;2023-03-05T01:28:08;22.57;;;13.80;;
11228;SDS011;5671;47.936;8.716;2023-03-05T01:30:37;19.23;;;13.07;;
11228;SDS011;5671;47.936;8.716;2023-03-05T01:33:03;21.60;;;13.70;;
11228;SDS011;5671;47.936;8.716;2023-03-05T01:35:31;21.30;;;13.63;;
11228;SDS011;5671;47.936;8.716;2023-03-05T01:37:58;18.00;;;12.32;;
11228;SDS011;5671;47.936;8.716;2023-03-05T01:40:26;19.35;;;12.63;;
11228;SDS011;5671;47.936;8.716;2023-03-05T01:42:55;18.00;;;12.75;;
11228;SDS011;5671;47.936;8.716;2023-03-05T01:45:24;19.70;;;13.25;;
11228;SDS011;5671;47.936;8.716;2023-03-05T01:47:53;16.67;;;12.77;;
11228;SDS011;5671;47.936;8.716;2023-03-05T01:50:22;18.38;;;12.30;;
11228;SDS011;5671;47.936;8.716;2023-03-05T01:52:54;16.85;;;12.18;;
11228;SDS011;5671;47.936;8.716;2023-03-05T01:55:24;19.10;;;12.95;;
11228;SDS011;5671;47.936;8.716;2023-03-05T01:57:54;19.73;;;13.02;;
11228;SDS011;5671;47.936;8.716;2023-03-05T02:00:24;16.90;;;11.82;;
11228;SDS011;5671;47.936;8.716;2023-03-05T02:02:54;18.83;;;12.98;;
11228;SDS011;5671;47.936;8.716;2023-03-05T02:05:24;16.83;;;12.07;;
11228;SDS011;5671;47.936;8.716;2023-03-05T02:07:54;20.17;;;13.07;;
11228;SDS011;5671;47.936;8.716;2023-03-05T02:10:22;19.42;;;12.50;;
11228;SDS011;5671;47.936;8.716;2023-03-05T02:12:51;16.05;;;11.20;;
11228;SDS011;5671;47.936;8.716;2023-03-05T02:15:20;19.85;;;12.20;;
11228;SDS011;5671;47.936;8.716;2023-03-05T02:17:47;16.38;;;11.18;;
11228;SDS011;5671;47.936;8.716;2023-03-05T02:20:16;16.13;;;11.20;;
11228;SDS011;5671;47.936;8.716;2023-03-05T02:22:47;14.45;;;11.43;;
11228;SDS011;5671;47.936;8.716;2023-03-05T02:25:17;18.05;;;12.15;;
11228;SDS011;5671;47.936;8.716;2023-03-05T02:27:49;16.48;;;11.65;;
11228;SDS011;5671;47.936;8.716;2023-03-05T02:30:20;19.25;;;12.48;;
11228;SDS011;5671;47.936;8.716;2023-03-05T02:32:46;16.98;;;11.70;;
11228;SDS011;5671;47.936;8.716;2023-03-05T02:35:13;15.57;;;11.00;;
11228;SDS011;5671;47.936;8.716;2023-03-05T02:37:40;16.40;;;11.23;;
11228;SDS011;5671;47.936;8.716;2023-03-05T02:40:10;15.20;;;11.27;;
11228;SDS011;5671;47.936;8.716;2023-03-05T02:42:38;17.20;;;11.25;;
11228;SDS011;5671;47.936;8.716;2023-03-05T02:45:06;14.98;;;10.43;;
11228;SDS011;5671;47.936;8.716;2023-03-05T02:47:33;14.25;;;10.60;;
11228;SDS011;5671;47.936;8.716;2023-03-05T02:50:00;15.60;;;11.07;;
11228;SDS011;5671;47.936;8.716;2023-03-05T02:54:54;14.88;;;10.07;;
11228;SDS011;5671;47.936;8.716;2023-03-05T02:57:22;18.15;;;11.43;;
11228;SDS011;5671;47.936;8.716;2023-03-05T02:59:49;14.80;;;10.43;;
11228;SDS011;5671;47.936;8.716;2023-03-05T03:02:16;15.85;;;11.68;;
11228;SDS011;5671;47.936;8.716;2023-03-05T03:04:43;16.25;;;11.32;;
11228;SDS011;5671;47.936;8.716;2023-03-05T03:07:10;15.23;;;10.75;;
11228;SDS011;5671;47.936;8.716;2023-03-05T03:09:37;15.75;;;10.98;;
11228;SDS011;5671;47.936;8.716;2023-03-05T03:12:05;14.68;;;10.90;;
11228;SDS011;5671;47.936;8.716;2023-03-05T03:14:34;15.98;;;11.30;;
11228;SDS011;5671;47.936;8.716;2023-03-05T03:17:03;16.67;;;10.63;;
11228;SDS011;5671;47.936;8.716;2023-03-05T03:19:31;14.23;;;10.48;;
11228;SDS011;5671;47.936;8.716;2023-03-05T03:21:57;15.38;;;10.32;;
11228;SDS011;5671;47.936;8.716;2023-03-05T03:24:24;12.82;;;9.80;;
11228;SDS011;5671;47.936;8.716;2023-03-05T03:26:51;13.25;;;9.43;;
11228;SDS011;5671;47.936;8.716;2023-03-05T03:29:18;14.20;;;8.73;;
11228;SDS011;5671;47.936;8.716;2023-03-05T03:31:49;11.57;;;9.15;;
11228;SDS011;5671;47.936;8.716;2023-03-05T03:34:16;12.40;;;8.70;;
11228;SDS011;5671;47.936;8.716;2023-03-05T03:36:43;11.48;;;7.72;;
11228;SDS011;5671;47.936;8.716;2023-03-05T03:39:11;14.38;;;9.20;;
11228;SDS011;5671;47.936;8.716;2023-03-05T03:41:39;13.10;;;9.20;;
11228;SDS011;5671;47.936;8.716;2023-03-05T03:44:07;12.80;;;8.48;;
11228;SDS011;5671;47.936;8.716;2023-03-05T03:46:34;12.48;;;8.73;;
11228;SDS011;5671;47.936;8.716;2023-03-05T03:49:03;11.88;;;8.05;;
11228;SDS011;5671;47.936;8.716;2023-03-05T03:51:30;12.77;;;8.10;;
11228;SDS011;5671;47.936;8.716;2023-03-05T03:53:57;11.25;;;8.07;;
11228;SDS011;5671;47.936;8.716;2023-03-05T03:56:24;12.73;;;7.95;;
11228;SDS011;5671;47.936;8.716;2023-03-05T03:58:51;13.05;;;7.85;;
11228;SDS011;5671;47.936;8.716;2023-03-05T04:01:18;15.02;;;7.97;;
11228;SDS011;5671;47.936;8.716;2023-03-05T04:03:46;10.35;;;7.78;;
11228;SDS011;5671;47.936;8.716;2023-03-05T04:06:14;11.65;;;7.28;;
11228;SDS011;5671;47.936;8.716;2023-03-05T04:08:41;9.68;;;6.88;;
11228;SDS011;5671;47.936;8.716;2023-03-05T04:11:07;8.35;;;6.70;;
11228;SDS011;5671;47.936;8.716;2023-03-05T04:13:34;12.85;;;8.18;;
11228;SDS011;5671;47.936;8.716;2023-03-05T04:16:01;15.70;;;9.82;;
11228;SDS011;5671;47.936;8.716;2023-03-05T04:18:28;15.10;;;11.32;;
11228;SDS011;5671;47.936;8.716;2023-03-05T04:20:55;15.60;;;11.07;;
11228;SDS011;5671;47.936;8.716;2023-03-05T04:23:23;17.10;;;11.27;;
11228;SDS011;5671;47.936;8.716;2023-03-05T04:25:50;15.95;;;10.38;;
11228;SDS011;5671;47.936;8.716;2023-03-05T04:28:17;16.50;;;11.27;;
11228;SDS011;5671;47.936;8.716;2023-03-05T04:30:43;15.57;;;10.40;;
11228;SDS011;5671;47.936;8.716;2023-03-05T04:33:10;14.90;;;9.57;;
11228;SDS011;5671;47.936;8.716;2023-03-05T04:35:37;13.75;;;9.98;;
11228;SDS011;5671;47.936;8.716;2023-03-05T04:38:04;15.70;;;10.52;;
11228;SDS011;5671;47.936;8.716;2023-03-05T04:40:33;18.33;;;10.50;;
11228;SDS011;5671;47.936;8.716;2023-03-05T04:43:00;14.93;;;9.77;;
11228;SDS011;5671;47.936;8.716;2023-03-05T04:45:27;15.60;;;10.40;;
11228;SDS011;5671;47.936;8.716;2023-03-05T04:47:54;19.38;;;11.23;;
11228;SDS011;5671;47.936;8.716;2023-03-05T04:50:21;16.70;;;11.27;;
11228;SDS011;5671;47.936;8.716;2023-03-05T04:52:47;17.58;;;11.43;;
11228;SDS011;5671;47.936;8.716;2023-03-05T04:55:15;18.45;;;12.60;;
11228;SDS011;5671;47.936;8.716;2023-03-05T04:57:43;16.65;;;11.55;;
11228;SDS011;5671;47.936;8.716;2023-03-05T05:00:12;19.05;;;12.40;;
11228;SDS011;5671;47.936;8.716;2023-03-05T05:02:41;18.83;;;12.93;;
11228;SDS011;5671;47.936;8.716;2023-03-05T05:05:09;20.95;;;13.70;;
11228;SDS011;5671;47.936;8.716;2023-03-05T05:07:38;21.90;;;13.77;;
11228;SDS011;5671;47.936;8.716;2023-03-05T05:10:05;20.23;;;13.60;;
11228;SDS011;5671;47.936;8.716;2023-03-05T05:12:34;20.80;;;13.75;;
11228;SDS011;5671;47.936;8.716;2023-03-05T05:15:03;23.42;;;15.10;;
11228;SDS011;5671;47.936;8.716;2023-03-05T05:17:31;22.42;;;14.02;;
11228;SDS011;5671;47.936;8.716;2023-03-05T05:19:58;21.98;;;14.05;;
11228;SDS011;5671;47.936;8.716;2023-03-05T05:22:25;23.52;;;16.08;;
11228;SDS011;5671;47.936;8.716;2023-03-05T05:24:52;22.55;;;14.45;;
11228;SDS011;5671;47.936;8.716;2023-03-05T05:27:19;23.58;;;15.43;;
11228;SDS011;5671;47.936;8.716;2023-03-05T05:29:46;23.33;;;15.63;;
11228;SDS011;5671;47.936;8.716;2023-03-05T05:32:15;23.58;;;15.77;;
11228;SDS011;5671;47.936;8.716;2023-03-05T05:34:43;23.45;;;14.55;;
11228;SDS011;5671;47.936;8.716;2023-03-05T05:37:09;23.52;;;14.95;;
11228;SDS011;5671;47.936;8.716;2023-03-05T05:39:36;22.83;;;15.60;;
11228;SDS011;5671;47.936;8.716;2023-03-05T05:42:04;22.02;;;14.93;;
11228;SDS011;5671;47.936;8.716;2023-03-05T05:44:31;21.42;;;14.57;;
11228;SDS011;5671;47.936;8.716;2023-03-05T05:46:58;26.48;;;16.17;;
11228;SDS011;5671;47.936;8.716;2023-03-05T05:49:27;21.10;;;14.63;;
11228;SDS011;5671;47.936;8.716;2023-03-05T05:51:53;22.13;;;15.02;;
11228;SDS011;5671;47.936;8.716;2023-03-05T05:54:21;22.20;;;14.70;;
11228;SDS011;5671;47.936;8.716;2023-03-05T05:56:48;21.48;;;13.95;;
11228;SDS011;5671;47.936;8.716;2023-03-05T05:59:15;20.33;;;13.85;;
11228;SDS011;5671;47.936;8.716;2023-03-05T06:01:42;20.05;;;14.23;;
11228;SDS011;5671;47.936;8.716;2023-03-05T06:04:09;21.70;;;14.27;;
11228;SDS011;5671;47.936;8.716;2023-03-05T06:06:37;22.50;;;15.45;;
11228;SDS011;5671;47.936;8.716;2023-03-05T06:09:04;21.38;;;14.25;;
11228;SDS011;5671;47.936;8.716;2023-03-05T06:11:31;21.38;;;14.52;;
11228;SDS011;5671;47.936;8.716;2023-03-05T06:13:58;19.95;;;13.93;;
11228;SDS011;5671;47.936;8.716;2023-03-05T06:16:26;19.63;;;13.98;;
11228;SDS011;5671;47.936;8.716;2023-03-05T06:18:53;24.65;;;14.70;;
11228;SDS011;5671;47.936;8.716;2023-03-05T06:21:20;20.23;;;14.32;;
11228;SDS011;5671;47.936;8.716;2023-03-05T06:23:49;22.13;;;14.57;;
11228;SDS011;5671;47.936;8.716;2023-03-05T06:26:17;22.63;;;15.23;;
11228;SDS011;5671;47.936;8.716;2023-03-05T06:28:45;22.98;;;15.10;;
11228;SDS011;5671;47.936;8.716;2023-03-05T06:31:13;23.83;;;15.13;;
11228;SDS011;5671;47.936;8.716;2023-03-05T06:33:42;22.77;;;15.93;;
11228;SDS011;5671;47.936;8.716;2023-03-05T06:36:09;21.80;;;14.88;;
11228;SDS011;5671;47.936;8.716;2023-03-05T06:38:37;23.98;;;15.23;;
11228;SDS011;5671;47.936;8.716;2023-03-05T06:41:07;22.33;;;15.05;;
11228;SDS011;5671;47.936;8.716;2023-03-05T06:43:35;22.27;;;15.32;;
11228;SDS011;5671;47.936;8.716;2023-03-05T06:46:03;22.75;;;14.63;;
11228;SDS011;5671;47.936;8.716;2023-03-05T06:48:32;20.58;;;14.02;;
11228;SDS011;5671;47.936;8.716;2023-03-05T06:50:59;22.02;;;15.15;;
11228;SDS011;5671;47.936;8.716;2023-03-05T06:53:26;21.13;;;14.95;;
11228;SDS011;5671;47.936;8.716;2023-03-05T06:55:53;20.90;;;14.75;;
11228;SDS011;5671;47.936;8.716;2023-03-05T06:58:21;23.00;;;15.65;;
11228;SDS011;5671;47.936;8.716;2023-03-05T07:00:48;23.95;;;15.43;;
11228;SDS011;5671;47.936;8.716;2023-03-05T07:03:15;19.58;;;14.00;;
11228;SDS011;5671;47.936;8.716;2023-03-05T07:05:42;21.83;;;15.63;;
11228;SDS011;5671;47.936;8.716;2023-03-05T07:08:09;18.73;;;13.63;;
11228;SDS011;5671;47.936;8.716;2023-03-05T07:10:36;20.75;;;15.10;;
11228;SDS011;5671;47.936;8.716;2023-03-05T07:13:04;23.40;;;14.93;;
11228;SDS011;5671;47.936;8.716;2023-03-05T07:15:32;22.33;;;14.82;;
11228;SDS011;5671;47.936;8.716;2023-03-05T07:18:02;28.40;;;14.77;;
11228;SDS011;5671;47.936;8.716;2023-03-05T07:20:29;22.90;;;13.80;;
11228;SDS011;5671;47.936;8.716;2023-03-05T07:22:56;21.05;;;14.20;;
11228;SDS011;5671;47.936;8.716;2023-03-05T07:25:23;17.65;;;13.52;;
11228;SDS011;5671;47.936;8.716;2023-03-05T07:27:50;23.17;;;14.48;;
11228;SDS011;5671;47.936;8.716;2023-03-05T07:30:17;24.93;;;18.80;;
11228;SDS011;5671;47.936;8.716;2023-03-05T07:32:46;31.20;;;20.10;;
11228;SDS011;5671;47.936;8.716;2023-03-05T07:35:13;31.53;;;21.57;;
11228;SDS011;5671;47.936;8.716;2023-03-05T07:37:39;19.03;;;14.30;;
11228;SDS011;5671;47.936;8.716;2023-03-05T07:40:07;27.92;;;20.60;;
11228;SDS011;5671;47.936;8.716;2023-03-05T07:42:37;22.13;;;13.70;;
11228;SDS011;5671;47.936;8.716;2023-03-05T07:45:04;22.17;;;14.48;;
11228;SDS011;5671;47.936;8.716;2023-03-05T07:47:32;20.38;;;14.82;;
11228;SDS011;5671;47.936;8.716;2023-03-05T07:50:00;23.17;;;15.47;;
11228;SDS011;5671;47.936;8.716;2023-03-05T07:52:27;25.23;;;16.03;;
11228;SDS011;5671;47.936;8.716;2023-03-05T07:54:54;20.97;;;15.07;;
11228;SDS011;5671;47.936;8.716;2023-03-05T07:57:21;21.63;;;14.70;;
11228;SDS011;5671;47.936;8.716;2023-03-05T07:59:48;19.37;;;14.17;;
11228;SDS011;5671;47.936;8.716;2023-03-05T08:02:14;18.90;;;13.20;;
11228;SDS011;5671;47.936;8.716;2023-03-05T08:04:43;20.10;;;13.57;;
11228;SDS011;5671;47.936;8.716;2023-03-05T08:07:14;22.40;;;14.20;;
11228;SDS011;5671;47.936;8.716;2023-03-05T08:09:41;20.05;;;13.45;;
11228;SDS011;5671;47.936;8.716;2023-03-05T08:12:08;19.37;;;13.57;;
11228;SDS011;5671;47.936;8.716;2023-03-05T08:14:35;18.77;;;13.43;;
11228;SDS011;5671;47.936;8.716;2023-03-05T08:17:02;19.73;;;14.20;;
11228;SDS011;5671;47.936;8.716;2023-03-05T08:19:29;26.20;;;18.17;;
11228;SDS011;5671;47.936;8.716;2023-03-05T08:21:57;25.73;;;16.67;;
11228;SDS011;5671;47.936;8.716;2023-03-05T08:24:25;23.70;;;16.60;;
11228;SDS011;5671;47.936;8.716;2023-03-05T08:26:53;26.60;;;16.47;;
11228;SDS011;5671;47.936;8.716;2023-03-05T08:29:20;25.27;;;18.57;;
11228;SDS011;5671;47.936;8.716;2023-03-05T08:31:47;25.67;;;17.13;;
11228;SDS011;5671;47.936;8.716;2023-03-05T08:34:15;24.50;;;17.43;;
11228;SDS011;5671;47.936;8.716;2023-03-05T08:36:42;25.60;;;16.57;;
11228;SDS011;5671;47.936;8.716;2023-03-05T08:39:09;20.90;;;15.50;;
11228;SDS011;5671;47.936;8.716;2023-03-05T08:41:39;21.63;;;14.97;;
11228;SDS011;5671;47.936;8.716;2023-03-05T08:44:06;20.93;;;14.30;;
11228;SDS011;5671;47.936;8.716;2023-03-05T08:46:33;20.67;;;14.40;;
11228;SDS011;5671;47.936;8.716;2023-03-05T08:48:59;20.10;;;14.03;;
11228;SDS011;5671;47.936;8.716;2023-03-05T08:51:26;17.67;;;12.87;;
11228;SDS011;5671;47.936;8.716;2023-03-05T08:53:54;21.60;;;14.37;;
11228;SDS011;5671;47.936;8.716;2023-03-05T08:56:25;24.83;;;14.73;;
11228;SDS011;5671;47.936;8.716;2023-03-05T08:58:56;19.97;;;13.93;;
11228;SDS011;5671;47.936;8.716;2023-03-05T09:01:23;20.73;;;14.53;;
11228;SDS011;5671;47.936;8.716;2023-03-05T09:03:50;20.27;;;14.40;;
11228;SDS011;5671;47.936;8.716;2023-03-05T09:06:17;20.70;;;15.00;;
11228;SDS011;5671;47.936;8.716;2023-03-05T09:08:43;19.13;;;14.03;;
11228;SDS011;5671;47.936;8.716;2023-03-05T09:11:10;23.90;;;13.30;;
11228;SDS011;5671;47.936;8.716;2023-03-05T09:13:38;16.93;;;12.47;;
11228;SDS011;5671;47.936;8.716;2023-03-05T09:16:10;17.27;;;12.03;;
11228;SDS011;5671;47.936;8.716;2023-03-05T09:18:37;19.90;;;12.73;;
11228;SDS011;5671;47.936;8.716;2023-03-05T09:21:05;17.00;;;12.97;;
11228;SDS011;5671;47.936;8.716;2023-03-05T09:23:32;16.03;;;12.90;;
11228;SDS011;5671;47.936;8.716;2023-03-05T09:25:59;22.53;;;16.60;;
11228;SDS011;5671;47.936;8.716;2023-03-05T09:28:26;19.47;;;11.77;;
11228;SDS011;5671;47.936;8.716;2023-03-05T09:30:53;19.77;;;14.80;;
11228;SDS011;5671;47.936;8.716;2023-03-05T09:33:21;24.93;;;17.77;;
11228;SDS011;5671;47.936;8.716;2023-03-05T09:35:48;16.87;;;13.37;;
11228;SDS011;5671;47.936;8.716;2023-03-05T09:38:15;19.70;;;12.40;;
11228;SDS011;5671;47.936;8.716;2023-03-05T09:40:44;17.60;;;12.70;;
11228;SDS011;5671;47.936;8.716;2023-03-05T09:43:22;18.87;;;13.67;;
11228;SDS011;5671;47.936;8.716;2023-03-05T09:45:57;28.30;;;18.57;;
11228;SDS011;5671;47.936;8.716;2023-03-05T09:48:40;21.83;;;16.10;;
11228;SDS011;5671;47.936;8.716;2023-03-05T09:51:15;20.63;;;14.57;;
11228;SDS011;5671;47.936;8.716;2023-03-05T09:53:48;19.70;;;14.60;;
11228;SDS011;5671;47.936;8.716;2023-03-05T09:56:20;21.37;;;14.90;;
11228;SDS011;5671;47.936;8.716;2023-03-05T09:58:51;18.77;;;13.63;;
11228;SDS011;5671;47.936;8.716;2023-03-05T10:01:21;17.50;;;13.50;;
11228;SDS011;5671;47.936;8.716;2023-03-05T10:03:58;21.07;;;13.97;;
11228;SDS011;5671;47.936;8.716;2023-03-05T10:06:33;19.47;;;13.20;;
11228;SDS011;5671;47.936;8.716;2023-03-05T10:09:03;16.97;;;10.93;;
11228;SDS011;5671;47.936;8.716;2023-03-05T10:11:41;17.07;;;11.97;;
11228;SDS011;5671;47.936;8.716;2023-03-05T10:14:13;18.50;;;12.43;;
11228;SDS011;5671;47.936;8.716;2023-03-05T10:20:02;14.27;;;10.47;;
11228;SDS011;5671;47.936;8.716;2023-03-05T10:22:52;15.90;;;11.27;;
11228;SDS011;5671;47.936;8.716;2023-03-05T10:25:53;19.73;;;11.30;;
11228;SDS011;5671;47.936;8.716;2023-03-05T10:28:28;17.70;;;11.77;;
11228;SDS011;5671;47.936;8.716;2023-03-05T10:31:14;15.47;;;12.03;;
11228;SDS011;5671;47.936;8.716;2023-03-05T10:33:56;18.50;;;12.87;;
11228;SDS011;5671;47.936;8.716;2023-03-05T10:36:41;15.40;;;11.50;;
11228;SDS011;5671;47.936;8.716;2023-03-05T10:39:36;18.13;;;11.23;;
11228;SDS011;5671;47.936;8.716;2023-03-05T10:42:27;16.37;;;12.80;;
11228;SDS011;5671;47.936;8.716;2023-03-05T10:44:59;13.60;;;9.97;;
11228;SDS011;5671;47.936;8.716;2023-03-05T10:47:35;15.20;;;10.30;;
11228;SDS011;5671;47.936;8.716;2023-03-05T10:50:14;13.73;;;10.17;;
11228;SDS011;5671;47.936;8.716;2023-03-05T10:52:44;11.93;;;8.73;;
11228;SDS011;5671;47.936;8.716;2023-03-05T10:55:17;11.53;;;8.37;;
11228;SDS011;5671;47.936;8.716;2023-03-05T10:57:45;11.97;;;8.83;;
11228;SDS011;5671;47.936;8.716;2023-03-05T11:00:21;11.90;;;8.30;;
11228;SDS011;5671;47.936;8.716;2023-03-05T11:02:56;7.53;;;6.50;;
11228;SDS011;5671;47.936;8.716;2023-03-05T11:05:43;12.03;;;8.47;;
11228;SDS011;5671;47.936;8.716;2023-03-05T11:11:09;10.83;;;7.83;;
11228;SDS011;5671;47.936;8.716;2023-03-05T11:13:43;10.23;;;7.37;;
11228;SDS011;5671;47.936;8.716;2023-03-05T11:16:21;10.77;;;7.70;;
11228;SDS011;5671;47.936;8.716;2023-03-05T11:19:11;9.10;;;7.87;;
11228;SDS011;5671;47.936;8.716;2023-03-05T11:21:43;9.17;;;7.13;;
11228;SDS011;5671;47.936;8.716;2023-03-05T11:24:13;7.87;;;6.80;;
11228;SDS011;5671;47.936;8.716;2023-03-05T11:26:46;9.47;;;7.47;;
11228;SDS011;5671;47.936;8.716;2023-03-05T11:29:19;10.90;;;7.70;;
11228;SDS011;5671;47.936;8.716;2023-03-05T11:31:48;9.90;;;7.90;;
11228;SDS011;5671;47.936;8.716;2023-03-05T11:34:23;7.83;;;6.60;;
11228;SDS011;5671;47.936;8.716;2023-03-05T11:36:59;9.20;;;7.30;;
11228;SDS011;5671;47.936;8.716;2023-03-05T11:39:29;12.17;;;7.47;;
11228;SDS011;5671;47.936;8.716;2023-03-05T11:41:59;8.27;;;6.23;;
11228;SDS011;5671;47.936;8.716;2023-03-05T11:44:31;7.47;;;6.47;;
11228;SDS011;5671;47.936;8.716;2023-03-05T11:47:00;9.23;;;6.57;;
11228;SDS011;5671;47.936;8.716;2023-03-05T11:49:32;7.33;;;6.40;;
11228;SDS011;5671;47.936;8.716;2023-03-05T11:52:06;7.97;;;6.10;;
11228;SDS011;5671;47.936;8.716;2023-03-05T11:54:41;6.63;;;5.77;;
11228;SDS011;5671;47.936;8.716;2023-03-05T11:57:17;6.27;;;5.40;;
11228;SDS011;5671;47.936;8.716;2023-03-05T11:59:49;5.83;;;5.23;;
11228;SDS011;5671;47.936;8.716;2023-03-05T12:05:58;6.87;;;5.47;;
11228;SDS011;5671;47.936;8.716;2023-03-05T12:08:54;7.23;;;5.33;;
11228;SDS011;5671;47.936;8.716;2023-03-05T12:11:25;5.10;;;4.50;;
11228;SDS011;5671;47.936;8.716;2023-03-05T12:13:59;5.40;;;4.83;;
11228;SDS011;5671;47.936;8.716;2023-03-05T12:16:45;4.90;;;4.40;;
11228;SDS011;5671;47.936;8.716;2023-03-05T12:26:13;5.73;;;4.67;;
11228;SDS011;5671;47.936;8.716;2023-03-05T12:28:58;5.57;;;4.40;;
11228;SDS011;5671;47.936;8.716;2023-03-05T12:31:33;5.73;;;4.13;;
11228;SDS011;5671;47.936;8.716;2023-03-05T12:50:04;5.77;;;4.53;;
11228;SDS011;5671;47.936;8.716;2023-03-05T12:53:14;4.40;;;4.00;;
11228;SDS011;5671;47.936;8.716;2023-03-05T12:56:31;6.17;;;4.90;;
11228;SDS011;5671;47.936;8.716;2023-03-05T12:59:28;4.30;;;3.90;;
11228;SDS011;5671;47.936;8.716;2023-03-05T13:02:22;6.27;;;4.03;;
11228;SDS011;5671;47.936;8.716;2023-03-05T13:08:37;5.50;;;4.40;;
11228;SDS011;5671;47.936;8.716;2023-03-05T13:11:04;5.17;;;4.30;;
11228;SDS011;5671;47.936;8.716;2023-03-05T13:13:45;4.47;;;4.07;;
11228;SDS011;5671;47.936;8.716;2023-03-05T13:16:17;4.90;;;4.40;;
11228;SDS011;5671;47.936;8.716;2023-03-05T13:18:55;5.10;;;4.60;;
11228;SDS011;5671;47.936;8.716;2023-03-05T13:21:25;5.27;;;4.63;;
11228;SDS011;5671;47.936;8.716;2023-03-05T13:23:56;5.30;;;4.47;;
11228;SDS011;5671;47.936;8.716;2023-03-05T13:26:31;5.33;;;4.10;;
11228;SDS011;5671;47.936;8.716;2023-03-05T13:29:15;5.27;;;4.77;;
11228;SDS011;5671;47.936;8.716;2023-03-05T13:31:55;5.53;;;4.67;;
11228;SDS011;5671;47.936;8.716;2023-03-05T13:34:53;5.23;;;4.63;;
11228;SDS011;5671;47.936;8.716;2023-03-05T13:37:42;5.20;;;4.70;;
11228;SDS011;5671;47.936;8.716;2023-03-05T13:40:30;5.53;;;4.73;;
11228;SDS011;5671;47.936;8.716;2023-03-05T13:43:22;7.00;;;4.60;;
11228;SDS011;5671;47.936;8.716;2023-03-05T13:49:55;5.07;;;4.47;;
11228;SDS011;5671;47.936;8.716;2023-03-05T13:52:39;5.10;;;4.60;;
11228;SDS011;5671;47.936;8.716;2023-03-05T13:55:41;6.60;;;5.40;;
11228;SDS011;5671;47.936;8.716;2023-03-05T14:01:12;5.93;;;5.07;;
11228;SDS011;5671;47.936;8.716;2023-03-05T14:03:43;6.60;;;5.10;;
11228;SDS011;5671;47.936;8.716;2023-03-05T14:06:28;5.30;;;4.80;;
11228;SDS011;5671;47.936;8.716;2023-03-05T14:09:06;6.33;;;4.60;;
11228;SDS011;5671;47.936;8.716;2023-03-05T14:11:50;5.77;;;5.07;;
11228;SDS011;5671;47.936;8.716;2023-03-05T14:14:24;6.67;;;5.07;;
11228;SDS011;5671;47.936;8.716;2023-03-05T14:16:53;5.03;;;4.53;;
11228;SDS011;5671;47.936;8.716;2023-03-05T14:19:38;5.80;;;4.83;;
11228;SDS011;5671;47.936;8.716;2023-03-05T14:25:04;6.30;;;5.40;;
11228;SDS011;5671;47.936;8.716;2023-03-05T14:31:09;7.13;;;5.53;;
11228;SDS011;5671;47.936;8.716;2023-03-05T14:33:44;5.90;;;5.30;;
11228;SDS011;5671;47.936;8.716;2023-03-05T14:36:19;9.63;;;8.53;;
11228;SDS011;5671;47.936;8.716;2023-03-05T14:42:20;6.13;;;4.80;;
11228;SDS011;5671;47.936;8.716;2023-03-05T14:44:55;5.20;;;4.67;;
11228;SDS011;5671;47.936;8.716;2023-03-05T14:47:34;6.53;;;5.00;;
11228;SDS011;5671;47.936;8.716;2023-03-05T14:50:06;6.00;;;5.30;;
11228;SDS011;5671;47.936;8.716;2023-03-05T14:52:40;5.83;;;4.83;;
11228;SDS011;5671;47.936;8.716;2023-03-05T14:55:13;5.87;;;4.77;;
11228;SDS011;5671;47.936;8.716;2023-03-05T14:57:41;5.60;;;4.77;;
11228;SDS011;5671;47.936;8.716;2023-03-05T15:00:14;5.60;;;4.87;;
11228;SDS011;5671;47.936;8.716;2023-03-05T15:02:41;5.37;;;4.40;;
11228;SDS011;5671;47.936;8.716;2023-03-05T15:05:08;5.10;;;4.43;;
11228;SDS011;5671;47.936;8.716;2023-03-05T15:07:36;8.10;;;5.17;;
11228;SDS011;5671;47.936;8.716;2023-03-05T15:10:04;5.37;;;4.60;;
11228;SDS011;5671;47.936;8.716;2023-03-05T15:12:39;5.30;;;4.37;;
11228;SDS011;5671;47.936;8.716;2023-03-05T15:15:07;4.97;;;4.40;;
11228;SDS011;5671;47.936;8.716;2023-03-05T15:17:38;6.00;;;4.43;;
11228;SDS011;5671;47.936;8.716;2023-03-05T15:20:08;4.80;;;4.30;;
11228;SDS011;5671;47.936;8.716;2023-03-05T15:22:42;5.43;;;4.40;;
11228;SDS011;5671;47.936;8.716;2023-03-05T15:25:09;5.57;;;4.27;;
11228;SDS011;5671;47.936;8.716;2023-03-05T15:27:38;5.57;;;4.67;;
11228;SDS011;5671;47.936;8.716;2023-03-05T15:30:19;5.80;;;4.53;;
11228;SDS011;5671;47.936;8.716;2023-03-05T15:32:48;5.67;;;4.90;;
11228;SDS011;5671;47.936;8.716;2023-03-05T15:35:16;4.77;;;4.13;;
11228;SDS011;5671;47.936;8.716;2023-03-05T15:37:43;5.67;;;4.33;;
11228;SDS011;5671;47.936;8.716;2023-03-05T15:40:10;4.27;;;3.87;;
11228;SDS011;5671;47.936;8.716;2023-03-05T15:42:39;4.70;;;4.17;;
11228;SDS011;5671;47.936;8.716;2023-03-05T15:45:06;5.00;;;4.43;;
11228;SDS011;5671;47.936;8.716;2023-03-05T15:47:34;7.97;;;4.90;;
11228;SDS011;5671;47.936;8.716;2023-03-05T15:50:01;6.07;;;4.13;;
11228;SDS011;5671;47.936;8.716;2023-03-05T15:52:28;5.50;;;3.93;;
11228;SDS011;5671;47.936;8.716;2023-03-05T15:54:54;4.30;;;3.90;;
11228;SDS011;5671;47.936;8.716;2023-03-05T15:57:21;6.37;;;4.30;;
11228;SDS011;5671;47.936;8.716;2023-03-05T15:59:50;5.23;;;4.00;;